Time;durP1;ratioP1;P1;durP2;ratioP2;P2;SDS_P1;SDS_P2;PMS_P1;PMS_P2;Temp;Humidity;BMP_temperature;BMP_pressure;BME280_temperature;BME280_humidity;BME280_pressure;Samples;Min_cycle;Max_cycle;Signal;HPM_P1;HPM_P2
2022/10/26 00:02:12;;;;;;;13.67;8.33;;;11.80;99.90;;;;;;5088071;28;20214;-71
2022/10/26 00:04:38;;;;;;;11.10;7.53;;;11.80;99.90;;;;;;5085383;28;20210;-72
2022/10/26 00:07:04;;;;;;;9.57;6.83;;;11.70;99.90;;;;;;5081597;28;20732;-72
2022/10/26 00:09:30;;;;;;;16.80;8.67;;;11.70;99.90;;;;;;5085580;28;20582;-72
2022/10/26 00:11:55;;;;;;;13.73;8.17;;;11.70;99.90;;;;;;5086741;28;20214;-72
2022/10/26 00:14:21;;;;;;;15.70;8.80;;;11.80;99.90;;;;;;5070578;28;20180;-72
2022/10/26 00:16:46;;;;;;;11.63;7.40;;;11.60;99.90;;;;;;5082828;28;20192;-72
2022/10/26 00:19:12;;;;;;;13.30;7.93;;;11.70;99.90;;;;;;5086406;28;20597;-72
2022/10/26 00:21:37;;;;;;;13.03;7.97;;;11.70;99.90;;;;;;5085149;28;20209;-73
2022/10/26 00:24:03;;;;;;;12.57;8.33;;;11.70;99.90;;;;;;5081190;28;20255;-72
2022/10/26 00:26:29;;;;;;;10.97;8.03;;;11.60;99.90;;;;;;5063814;28;20175;-72
2022/10/26 00:28:56;;;;;;;11.37;8.13;;;11.70;99.90;;;;;;5086695;28;20687;-72
2022/10/26 00:31:22;;;;;;;9.87;7.27;;;11.70;99.90;;;;;;5084462;28;20248;-72
2022/10/26 00:33:52;;;;;;;11.57;8.00;;;11.60;99.90;;;;;;5079186;28;20210;-71
2022/10/26 00:36:18;;;;;;;12.80;7.70;;;11.60;99.90;;;;;;5084602;28;20210;-73
2022/10/26 00:38:54;;;;;;;12.40;8.20;;;11.50;99.90;;;;;;5084343;28;20803;-72
2022/10/26 00:41:23;;;;;;;10.53;7.97;;;11.50;99.90;;;;;;5084852;28;20277;-73
2022/10/26 00:43:49;;;;;;;10.90;8.27;;;11.50;99.90;;;;;;5085398;28;20257;-72
2022/10/26 00:46:42;;;;;;;16.90;7.73;;;11.50;99.90;;;;;;5085886;28;20206;-72
2022/10/26 00:49:15;;;;;;;9.90;7.70;;;11.50;99.90;;;;;;5078982;28;20232;-72
2022/10/26 00:51:44;;;;;;;12.30;8.20;;;11.50;99.90;;;;;;5081956;28;20210;-72
2022/10/26 00:54:17;;;;;;;16.63;8.77;;;11.60;99.90;;;;;;5085464;28;20211;-72
2022/10/26 00:56:44;;;;;;;12.73;8.20;;;11.50;99.90;;;;;;5083401;28;20210;-72
2022/10/26 00:59:11;;;;;;;11.63;7.60;;;11.50;99.90;;;;;;5080856;28;20341;-73
2022/10/26 01:01:39;;;;;;;13.13;8.33;;;11.50;99.90;;;;;;5088216;28;20217;-72
2022/10/26 01:04:05;;;;;;;9.67;7.40;;;11.40;99.90;;;;;;5083680;28;20211;-72
2022/10/26 01:06:34;;;;;;;12.53;8.57;;;11.40;99.90;;;;;;5082866;28;20206;-72
2022/10/26 01:08:59;;;;;;;12.60;8.30;;;11.40;99.90;;;;;;5082552;28;20229;-72
2022/10/26 01:11:25;;;;;;;12.17;7.70;;;11.50;99.90;;;;;;5088404;28;20194;-73
2022/10/26 01:13:53;;;;;;;13.23;7.90;;;11.40;99.90;;;;;;5082549;28;20253;-72
2022/10/26 01:16:56;;;;;;;12.30;7.70;;;11.40;99.90;;;;;;5082047;28;20301;-72
2022/10/26 01:19:40;;;;;;;9.20;7.43;;;11.40;99.90;;;;;;5083954;28;20256;-73
2022/10/26 01:22:27;;;;;;;11.17;7.23;;;11.40;99.90;;;;;;5082739;28;20222;-73
2022/10/26 01:25:10;;;;;;;10.33;8.13;;;11.40;99.90;;;;;;5078676;28;20293;-72
2022/10/26 01:27:45;;;;;;;9.93;7.07;;;11.40;99.90;;;;;;5089094;28;20218;-72
2022/10/26 01:30:19;;;;;;;13.23;7.60;;;11.30;99.90;;;;;;5087421;28;20214;-72
2022/10/26 01:33:06;;;;;;;12.80;8.43;;;11.40;99.90;;;;;;5084151;28;20215;-72
2022/10/26 01:35:52;;;;;;;14.20;7.87;;;11.30;99.90;;;;;;5066061;28;20718;-72
2022/10/26 01:38:31;;;;;;;13.67;8.30;;;11.30;99.90;;;;;;5063364;28;20181;-72
2022/10/26 01:41:16;;;;;;;11.53;8.17;;;11.30;99.90;;;;;;5087117;28;20311;-72
2022/10/26 01:43:47;;;;;;;8.93;6.87;;;11.20;99.90;;;;;;5089236;28;20245;-72
2022/10/26 01:46:14;;;;;;;15.53;7.83;;;11.20;99.90;;;;;;5089155;28;20210;-73
2022/10/26 01:48:41;;;;;;;14.87;8.27;;;11.20;99.90;;;;;;5085987;28;20229;-72
2022/10/26 01:51:08;;;;;;;12.87;7.73;;;11.20;99.90;;;;;;5087094;28;20293;-73
2022/10/26 01:53:33;;;;;;;13.50;8.33;;;11.10;99.90;;;;;;5091431;28;20281;-72
2022/10/26 01:56:01;;;;;;;15.07;7.97;;;11.10;99.90;;;;;;5068676;28;20266;-72
2022/10/26 01:59:02;;;;;;;13.03;8.13;;;11.10;99.90;;;;;;5082039;28;20283;-72
2022/10/26 02:01:46;;;;;;;14.10;8.17;;;11.10;99.90;;;;;;5089118;28;20236;-72
2022/10/26 02:04:29;;;;;;;15.70;7.97;;;11.10;99.90;;;;;;5088056;28;20227;-72
2022/10/26 02:07:14;;;;;;;9.93;7.13;;;11.10;99.90;;;;;;5082605;28;20211;-72
2022/10/26 02:09:58;;;;;;;16.43;9.10;;;11.10;99.90;;;;;;5088162;28;20767;-72
2022/10/26 02:12:42;;;;;;;10.60;7.07;;;11.00;99.90;;;;;;5089261;28;20217;-72
2022/10/26 02:15:16;;;;;;;13.33;8.27;;;11.00;99.90;;;;;;5084793;28;20204;-73
2022/10/26 02:17:49;;;;;;;13.20;8.20;;;11.00;99.90;;;;;;5088866;28;20214;-72
2022/10/26 02:20:26;;;;;;;10.33;7.23;;;11.00;99.90;;;;;;5072283;28;20237;-73
2022/10/26 02:22:54;;;;;;;16.33;7.93;;;11.00;99.90;;;;;;5084738;28;20661;-71
2022/10/26 02:25:25;;;;;;;12.63;7.80;;;11.10;99.90;;;;;;5084823;28;20202;-72
2022/10/26 02:27:55;;;;;;;15.10;7.73;;;11.00;99.90;;;;;;5090497;28;20240;-72
2022/10/26 02:30:21;;;;;;;10.13;7.53;;;11.00;99.90;;;;;;5085920;28;20263;-73
2022/10/26 02:32:51;;;;;;;11.43;7.33;;;11.00;99.90;;;;;;5083089;28;20206;-72
2022/10/26 02:35:21;;;;;;;10.97;7.47;;;11.00;99.90;;;;;;5066599;28;20173;-72
2022/10/26 02:37:49;;;;;;;12.70;8.63;;;11.00;99.90;;;;;;5088327;28;20186;-72
2022/10/26 02:40:20;;;;;;;10.63;7.83;;;11.00;99.90;;;;;;5084601;28;20237;-72
2022/10/26 02:42:46;;;;;;;12.40;7.60;;;11.00;99.90;;;;;;5070323;28;20240;-72
2022/10/26 02:45:21;;;;;;;15.70;7.63;;;11.00;99.90;;;;;;5070977;28;20206;-73
2022/10/26 02:47:47;;;;;;;11.23;7.60;;;11.00;99.90;;;;;;5085443;28;20699;-73
2022/10/26 02:50:13;;;;;;;11.00;7.63;;;10.90;99.90;;;;;;5081123;28;20313;-73
2022/10/26 02:52:44;;;;;;;10.67;7.93;;;10.90;99.90;;;;;;5082607;28;20716;-73
2022/10/26 02:55:21;;;;;;;12.43;7.67;;;10.90;99.90;;;;;;5080327;28;20215;-73
2022/10/26 02:57:51;;;;;;;11.70;7.70;;;11.00;99.90;;;;;;5081268;28;20206;-73
2022/10/26 03:00:17;;;;;;;9.83;7.97;;;10.90;99.90;;;;;;5079315;28;20263;-73
2022/10/26 03:02:49;;;;;;;12.30;7.83;;;10.90;99.90;;;;;;5085723;28;20202;-72
2022/10/26 03:05:20;;;;;;;12.53;7.00;;;10.90;99.90;;;;;;5084669;28;20276;-73
2022/10/26 03:07:46;;;;;;;12.97;7.27;;;10.90;99.90;;;;;;5070421;28;20222;-73
2022/10/26 03:10:11;;;;;;;11.13;6.97;;;10.90;99.90;;;;;;5070379;28;20218;-73
2022/10/26 03:12:37;;;;;;;14.13;8.33;;;10.90;99.90;;;;;;5083287;28;20289;-74
2022/10/26 03:15:03;;;;;;;13.57;7.33;;;10.80;99.90;;;;;;5080111;28;20199;-74
2022/10/26 03:17:29;;;;;;;12.30;7.10;;;10.90;99.90;;;;;;5079809;28;20185;-73
2022/10/26 03:19:55;;;;;;;15.17;7.37;;;10.90;99.90;;;;;;5083773;28;20210;-73
2022/10/26 03:22:21;;;;;;;8.93;6.57;;;10.80;99.90;;;;;;5089418;28;20218;-72
2022/10/26 03:24:46;;;;;;;11.87;7.07;;;10.80;99.90;;;;;;5079957;28;20222;-71
2022/10/26 03:27:12;;;;;;;11.47;6.67;;;10.70;99.90;;;;;;5083830;28;20222;-71
2022/10/26 03:29:38;;;;;;;11.70;6.63;;;10.80;99.90;;;;;;5082511;28;20214;-71
2022/10/26 03:32:03;;;;;;;13.63;7.13;;;10.80;99.90;;;;;;5068952;28;20711;-71
2022/10/26 03:34:29;;;;;;;9.60;6.93;;;10.70;99.90;;;;;;5079598;28;20214;-70
2022/10/26 03:36:54;;;;;;;9.27;6.90;;;10.80;99.90;;;;;;5080889;28;20214;-70
2022/10/26 03:39:20;;;;;;;10.07;6.83;;;10.70;99.90;;;;;;5081269;28;20202;-70
2022/10/26 03:41:46;;;;;;;10.40;6.80;;;10.70;99.90;;;;;;5079830;28;20207;-70
2022/10/26 03:44:12;;;;;;;12.50;7.33;;;10.70;99.90;;;;;;5078828;28;20289;-71
2022/10/26 03:46:38;;;;;;;11.30;6.87;;;10.70;99.90;;;;;;5082493;28;20330;-70
2022/10/26 03:49:03;;;;;;;10.20;6.43;;;10.70;99.90;;;;;;5079095;28;20229;-71
2022/10/26 03:51:29;;;;;;;9.03;6.60;;;10.70;99.90;;;;;;5080215;28;20252;-71
2022/10/26 03:53:54;;;;;;;10.10;7.20;;;10.70;99.90;;;;;;5069754;28;20294;-70
2022/10/26 03:56:20;;;;;;;12.10;7.47;;;10.70;99.90;;;;;;5080943;28;20662;-71
2022/10/26 03:58:45;;;;;;;8.17;6.67;;;10.60;99.90;;;;;;5079693;28;20232;-71
2022/10/26 04:01:11;;;;;;;9.50;6.80;;;10.60;99.90;;;;;;5078018;28;20215;-70
2022/10/26 04:03:36;;;;;;;13.23;6.87;;;10.60;99.90;;;;;;5081956;28;20213;-72
2022/10/26 04:06:03;;;;;;;12.70;6.73;;;10.60;99.90;;;;;;5078757;28;20206;-71
2022/10/26 04:08:28;;;;;;;13.77;7.13;;;10.60;99.90;;;;;;5052981;28;20246;-71
2022/10/26 04:10:54;;;;;;;8.87;6.10;;;10.60;99.90;;;;;;5075921;28;20181;-71
2022/10/26 04:13:19;;;;;;;11.93;7.17;;;10.60;99.90;;;;;;5080874;28;20252;-71
2022/10/26 04:15:45;;;;;;;11.17;6.37;;;10.60;99.90;;;;;;5079194;28;20234;-70
2022/10/26 04:18:11;;;;;;;7.83;6.30;;;10.60;99.90;;;;;;5077883;28;20199;-71
2022/10/26 04:20:40;;;;;;;14.67;6.30;;;10.60;99.90;;;;;;5081552;28;20316;-71
2022/10/26 04:23:08;;;;;;;11.13;6.13;;;10.50;99.90;;;;;;5083225;28;20254;-71
2022/10/26 04:25:34;;;;;;;11.97;7.00;;;10.60;99.90;;;;;;5078494;28;20263;-70
2022/10/26 04:28:01;;;;;;;12.80;7.00;;;10.60;99.90;;;;;;5083123;28;20746;-71
2022/10/26 04:30:27;;;;;;;9.70;6.63;;;10.60;99.90;;;;;;5080790;28;20704;-71
2022/10/26 04:32:52;;;;;;;13.63;7.27;;;10.60;99.90;;;;;;5059871;28;20217;-71
2022/10/26 04:35:18;;;;;;;10.20;6.90;;;10.60;99.90;;;;;;5078514;28;20190;-71
2022/10/26 04:37:43;;;;;;;13.07;7.10;;;10.50;99.90;;;;;;5081335;28;20274;-70
2022/10/26 04:40:09;;;;;;;10.63;6.93;;;10.60;99.90;;;;;;5078632;28;20670;-70
2022/10/26 04:42:45;;;;;;;14.87;7.83;;;10.50;99.90;;;;;;5064049;28;20213;-71
2022/10/26 04:45:12;;;;;;;10.80;6.70;;;10.50;99.90;;;;;;5077903;28;20211;-71
2022/10/26 04:47:38;;;;;;;10.87;7.27;;;10.40;99.90;;;;;;5081265;28;20301;-71
2022/10/26 04:50:04;;;;;;;10.07;6.73;;;10.40;99.90;;;;;;5079134;28;20333;-71
2022/10/26 04:52:30;;;;;;;11.53;6.97;;;10.40;99.90;;;;;;5081434;28;20268;-70
2022/10/26 04:54:55;;;;;;;9.10;6.80;;;10.50;99.90;;;;;;5079213;28;20596;-72
2022/10/26 04:57:21;;;;;;;9.83;7.67;;;10.50;99.90;;;;;;5080788;28;20701;-71
2022/10/26 04:59:46;;;;;;;13.27;7.57;;;10.40;99.90;;;;;;5077823;28;20213;-72
2022/10/26 05:02:12;;;;;;;10.53;7.40;;;10.40;99.90;;;;;;5078257;28;20194;-71
2022/10/26 05:04:38;;;;;;;10.93;7.63;;;10.40;99.90;;;;;;5080718;28;20735;-71
2022/10/26 05:07:03;;;;;;;9.83;7.57;;;10.40;99.90;;;;;;5078394;28;20685;-72
2022/10/26 05:09:29;;;;;;;12.47;7.60;;;10.40;99.90;;;;;;5078391;28;20211;-71
2022/10/26 05:11:54;;;;;;;12.93;8.13;;;10.40;99.90;;;;;;5084732;28;20355;-71
2022/10/26 05:14:20;;;;;;;13.67;8.10;;;10.30;99.90;;;;;;5084232;28;20799;-71
2022/10/26 05:16:45;;;;;;;11.43;8.30;;;10.30;99.90;;;;;;5083084;28;20196;-71
2022/10/26 05:19:11;;;;;;;12.27;8.20;;;10.30;99.90;;;;;;5086668;28;20215;-71
2022/10/26 05:21:36;;;;;;;13.77;9.03;;;10.30;99.90;;;;;;5083552;28;20214;-71
2022/10/26 05:24:02;;;;;;;18.23;9.07;;;10.30;99.90;;;;;;5080518;28;20584;-71
2022/10/26 05:26:27;;;;;;;10.80;7.73;;;10.30;99.90;;;;;;5085133;28;20232;-72
2022/10/26 05:28:53;;;;;;;10.23;8.27;;;10.30;99.90;;;;;;5083700;28;20217;-71
2022/10/26 05:31:19;;;;;;;13.00;8.10;;;10.30;99.90;;;;;;5083818;28;20209;-72
2022/10/26 05:33:49;;;;;;;27.90;18.57;;;10.30;99.90;;;;;;5082408;28;20213;-72
2022/10/26 05:36:18;;;;;;;14.03;8.70;;;10.30;99.90;;;;;;5086874;28;20222;-71
2022/10/26 05:38:43;;;;;;;14.50;8.13;;;10.20;99.90;;;;;;5082792;28;20298;-71
2022/10/26 05:41:09;;;;;;;12.73;8.67;;;10.30;99.90;;;;;;5081762;28;20254;-71
2022/10/26 05:43:34;;;;;;;14.23;9.23;;;10.30;99.90;;;;;;5084961;28;20224;-71
2022/10/26 05:46:00;;;;;;;15.07;8.37;;;10.30;99.90;;;;;;5083902;28;20214;-71
2022/10/26 05:48:25;;;;;;;13.10;8.20;;;10.20;99.90;;;;;;5083097;28;20214;-71
2022/10/26 05:50:51;;;;;;;11.37;9.23;;;10.30;99.90;;;;;;5059880;28;20226;-71
2022/10/26 05:53:16;;;;;;;10.90;8.43;;;10.30;99.90;;;;;;5087094;28;20175;-71
2022/10/26 05:55:43;;;;;;;16.23;9.17;;;10.30;99.90;;;;;;5084790;28;20179;-71
2022/10/26 05:58:13;;;;;;;10.33;8.00;;;10.30;99.90;;;;;;5081234;28;20210;-72
2022/10/26 06:00:48;;;;;;;13.43;8.47;;;10.40;99.90;;;;;;5066695;28;20198;-70
2022/10/26 06:03:48;;;;;;;12.57;8.80;;;10.40;99.90;;;;;;5085432;28;20576;-71
2022/10/26 06:06:14;;;;;;;15.37;9.50;;;10.40;99.90;;;;;;5051625;28;20206;-71
2022/10/26 06:08:41;;;;;;;12.83;8.77;;;10.50;99.90;;;;;;5077697;28;20356;-71
2022/10/26 06:11:07;;;;;;;14.73;8.30;;;10.50;99.90;;;;;;5085885;28;20175;-71
2022/10/26 06:13:33;;;;;;;21.27;8.73;;;10.50;99.90;;;;;;5083895;28;20218;-71
2022/10/26 06:16:21;;;;;;;14.13;8.03;;;10.60;99.90;;;;;;5080486;28;20293;-71
2022/10/26 06:19:00;;;;;;;10.53;7.80;;;10.70;99.90;;;;;;5087352;28;20221;-71
2022/10/26 06:21:48;;;;;;;12.10;6.90;;;11.40;99.90;;;;;;5087058;28;20210;-71
2022/10/26 06:24:35;;;;;;;16.17;7.60;;;12.60;99.90;;;;;;5074010;28;20214;-71
2022/10/26 06:27:38;;;;;;;10.20;6.40;;;13.60;99.90;;;;;;5071677;28;20270;-71
2022/10/26 06:30:10;;;;;;;11.57;6.75;;;14.50;99.90;;;;;;5068441;28;20218;-71
2022/10/26 06:32:38;;;;;;;12.40;5.85;;;15.20;99.90;;;;;;5084578;28;20233;-72
2022/10/26 06:35:21;;;;;;;8.75;6.10;;;15.80;99.90;;;;;;5086099;28;20551;-72
2022/10/26 06:37:48;;;;;;;7.70;4.97;;;16.30;99.90;;;;;;5087106;28;20205;-72
2022/10/26 06:40:16;;;;;;;10.02;5.70;;;16.20;99.90;;;;;;5085862;28;20723;-71
2022/10/26 06:42:42;;;;;;;12.10;5.47;;;16.60;99.90;;;;;;5062781;28;20333;-72
2022/10/26 06:45:11;;;;;;;8.77;4.97;;;16.90;99.90;;;;;;5088985;28;20234;-71
2022/10/26 06:47:48;;;;;;;8.93;5.18;;;17.30;99.90;;;;;;5062046;28;20222;-71
2022/10/26 06:50:37;;;;;;;7.75;5.13;;;17.60;99.90;;;;;;5087733;28;20740;-72
2022/10/26 06:53:05;;;;;;;9.40;5.55;;;17.30;99.90;;;;;;5070198;28;20264;-71
2022/10/26 06:55:45;;;;;;;13.50;4.82;;;17.10;99.90;;;;;;5088995;28;20234;-71
2022/10/26 06:58:19;;;;;;;12.73;5.80;;;17.60;99.90;;;;;;5068601;28;20573;-72
2022/10/26 07:00:47;;;;;;;8.93;5.40;;;18.20;99.90;;;;;;5084113;28;20205;-72
2022/10/26 07:03:13;;;;;;;8.90;5.40;;;18.00;99.90;;;;;;5084866;28;20281;-72
2022/10/26 07:05:38;;;;;;;9.68;5.38;;;18.50;99.90;;;;;;5084313;28;20236;-72
2022/10/26 07:08:04;;;;;;;5.30;4.53;;;19.00;99.90;;;;;;5081116;28;20219;-71
2022/10/26 07:10:30;;;;;;;11.07;4.97;;;19.20;99.90;;;;;;5087669;28;20234;-72
2022/10/26 07:12:56;;;;;;;11.45;5.20;;;19.40;99.90;;;;;;5085441;28;20207;-72
2022/10/26 07:15:22;;;;;;;8.15;5.05;;;19.30;99.90;;;;;;5085480;28;20779;-72
2022/10/26 07:17:48;;;;;;;10.75;5.00;;;18.70;99.90;;;;;;5061468;28;20194;-72
2022/10/26 07:20:15;;;;;;;9.32;5.28;;;18.30;99.90;;;;;;5088070;28;20587;-71
2022/10/26 07:22:44;;;;;;;10.43;5.13;;;18.40;99.90;;;;;;5063934;28;20616;-72
2022/10/26 07:25:11;;;;;;;7.10;5.32;;;18.50;99.90;;;;;;5082707;28;20210;-71
2022/10/26 07:27:37;;;;;;;7.43;4.82;;;18.30;99.90;;;;;;5090028;28;20595;-72
2022/10/26 07:30:03;;;;;;;11.93;6.20;;;18.10;99.90;;;;;;5067952;28;20207;-71
2022/10/26 07:32:29;;;;;;;8.88;5.07;;;17.80;99.90;;;;;;5084468;28;20616;-71
2022/10/26 07:34:55;;;;;;;6.00;5.20;;;18.00;99.90;;;;;;5083338;28;20258;-72
2022/10/26 07:37:20;;;;;;;6.50;5.00;;;18.20;99.90;;;;;;5088210;28;20198;-72
2022/10/26 07:39:46;;;;;;;7.70;4.63;;;18.40;99.90;;;;;;5082238;28;20222;-71
2022/10/26 07:42:11;;;;;;;7.47;5.32;;;19.20;99.90;;;;;;5082961;28;20579;-71
2022/10/26 07:44:37;;;;;;;8.77;5.30;;;19.60;99.90;;;;;;5089588;28;20260;-71
2022/10/26 07:47:02;;;;;;;11.25;5.38;;;19.60;99.90;;;;;;5085914;28;20198;-71
2022/10/26 07:49:28;;;;;;;9.75;5.78;;;20.30;99.90;;;;;;5063976;28;20270;-71
2022/10/26 07:51:54;;;;;;;12.65;5.78;;;20.10;99.90;;;;;;5061258;28;20692;-71
2022/10/26 07:54:19;;;;;;;8.80;6.07;;;20.20;99.90;;;;;;5085936;28;20199;-72
2022/10/26 07:56:48;;;;;;;9.90;5.32;;;19.50;99.90;;;;;;5082488;28;20229;-72
2022/10/26 07:59:13;;;;;;;7.78;5.28;;;19.80;99.90;;;;;;5083454;28;20201;-71
2022/10/26 08:01:39;;;;;;;9.52;5.38;;;19.60;99.90;;;;;;5069219;28;20202;-71
2022/10/26 08:04:04;;;;;;;7.25;5.63;;;19.80;99.90;;;;;;5083018;28;20214;-71
2022/10/26 08:06:30;;;;;;;8.43;5.25;;;20.00;99.90;;;;;;5084353;28;20297;-71
2022/10/26 08:08:55;;;;;;;9.13;5.63;;;20.00;99.90;;;;;;5079177;28;20218;-71
2022/10/26 08:11:21;;;;;;;8.10;5.57;;;19.80;99.90;;;;;;5067537;28;20179;-72
2022/10/26 08:13:46;;;;;;;9.77;5.95;;;19.20;99.90;;;;;;5084373;28;20190;-71
2022/10/26 08:16:12;;;;;;;9.98;5.80;;;18.50;99.90;;;;;;5082611;28;20210;-70
2022/10/26 08:18:38;;;;;;;8.02;5.82;;;18.50;99.90;;;;;;5089224;28;20226;-71
2022/10/26 08:21:06;;;;;;;8.30;5.55;;;19.00;99.90;;;;;;5099350;22;20255;-69
2022/10/26 08:23:32;;;;;;;10.82;5.57;;;18.70;99.90;;;;;;5090847;28;20234;-68
2022/10/26 08:26:01;;;;;;;11.57;6.38;;;18.00;99.90;;;;;;5096423;28;20516;-68
2022/10/26 08:28:28;;;;;;;10.30;5.78;;;17.70;99.90;;;;;;5097443;28;20214;-68
2022/10/26 08:30:53;;;;;;;14.70;6.15;;;17.60;99.90;;;;;;5092295;28;20653;-67
2022/10/26 08:33:19;;;;;;;8.85;5.25;;;17.70;99.90;;;;;;5092457;28;20213;-68
2022/10/26 08:35:45;;;;;;;9.55;6.22;;;17.20;99.90;;;;;;5097043;28;20281;-68
2022/10/26 08:38:10;;;;;;;9.93;5.53;;;16.70;99.90;;;;;;5097131;28;20211;-68
2022/10/26 08:40:40;;;;;;;8.98;6.28;;;16.60;99.90;;;;;;5091750;28;20292;-67
2022/10/26 08:43:30;;;;;;;9.27;6.00;;;16.60;99.90;;;;;;5096460;28;20210;-68
2022/10/26 08:46:18;;;;;;;12.88;6.30;;;16.60;99.90;;;;;;5094047;28;20209;-68
2022/10/26 08:48:48;;;;;;;10.68;6.50;;;16.80;99.90;;;;;;5090415;28;20255;-67
2022/10/26 08:51:29;;;;;;;7.85;5.93;;;16.70;99.90;;;;;;5084357;28;20776;-69
2022/10/26 08:54:13;;;;;;;11.38;6.40;;;16.70;99.90;;;;;;5093678;28;20696;-68
2022/10/26 08:56:45;;;;;;;13.30;6.90;;;16.70;99.90;;;;;;5070218;28;20673;-69
2022/10/26 08:59:29;;;;;;;8.95;6.15;;;16.50;99.90;;;;;;5085391;28;20175;-69
2022/10/26 09:01:55;;;;;;;11.80;7.05;;;16.40;99.90;;;;;;5092323;28;20680;-68
2022/10/26 09:04:26;;;;;;;9.20;6.63;;;16.70;99.90;;;;;;5095383;28;20213;-68
2022/10/26 09:06:57;;;;;;;8.85;6.22;;;16.50;99.90;;;;;;5073117;28;20278;-69
2022/10/26 09:09:34;;;;;;;12.43;6.78;;;16.40;99.90;;;;;;5090849;28;20221;-68
2022/10/26 09:12:27;;;;;;;9.85;5.90;;;16.90;99.90;;;;;;5095881;28;20630;-68
2022/10/26 09:15:02;;;;;;;11.27;6.90;;;16.50;99.90;;;;;;5091144;28;20252;-68
2022/10/26 09:17:48;;;;;;;9.98;6.00;;;16.60;99.90;;;;;;5094686;28;20201;-70
2022/10/26 09:20:51;;;;;;;10.27;5.85;;;16.70;99.90;;;;;;5097218;28;20211;-69
2022/10/26 09:23:19;;;;;;;10.63;6.63;;;17.10;99.90;;;;;;5093260;28;20213;-71
2022/10/26 09:25:51;;;;;;;8.65;5.97;;;17.20;99.90;;;;;;5072064;28;20197;-67
2022/10/26 09:28:17;;;;;;;9.07;5.70;;;17.00;99.90;;;;;;5074644;28;20237;-69
2022/10/26 09:30:45;;;;;;;10.10;6.18;;;16.80;99.90;;;;;;5071928;28;20203;-69
2022/10/26 09:33:16;;;;;;;8.00;5.38;;;17.00;99.90;;;;;;5072997;28;20263;-69
2022/10/26 09:35:55;;;;;;;12.05;6.18;;;17.10;99.90;;;;;;5074470;28;20210;-69
2022/10/26 09:38:37;;;;;;;9.88;6.47;;;17.20;99.90;;;;;;5070019;28;20173;-69
2022/10/26 09:41:28;;;;;;;9.10;6.32;;;17.10;99.90;;;;;;5063082;28;20206;-69
2022/10/26 09:43:56;;;;;;;6.93;5.55;;;17.30;99.90;;;;;;5093988;28;20199;-68
2022/10/26 09:46:33;;;;;;;6.30;4.38;;;17.40;99.90;;;;;;5098659;28;20229;-70
2022/10/26 09:49:05;;;;;;;9.48;5.32;;;17.30;99.90;;;;;;5085195;28;20218;-69
2022/10/26 09:51:36;;;;;;;6.50;4.30;;;17.00;99.90;;;;;;5097108;28;20217;-68
2022/10/26 09:54:12;;;;;;;8.02;4.78;;;17.20;99.90;;;;;;5100746;28;20206;-69
2022/10/26 09:56:39;;;;;;;10.57;5.32;;;16.80;99.90;;;;;;5089311;28;20721;-70
2022/10/26 09:59:05;;;;;;;6.85;4.57;;;16.90;99.90;;;;;;5077240;28;20560;-69
2022/10/26 10:01:33;;;;;;;7.00;4.50;;;17.10;99.90;;;;;;5098775;28;20213;-70
2022/10/26 10:04:13;;;;;;;4.30;3.65;;;17.40;99.90;;;;;;5098971;28;20233;-70
2022/10/26 10:06:49;;;;;;;9.80;4.30;;;17.50;99.90;;;;;;5093189;28;20783;-70
2022/10/26 10:09:20;;;;;;;7.10;4.15;;;17.50;99.90;;;;;;5101867;28;20217;-68
2022/10/26 10:12:01;;;;;;;5.63;4.30;;;17.70;99.90;;;;;;5096059;28;20210;-68
2022/10/26 10:14:29;;;;;;;13.65;9.35;;;17.60;99.90;;;;;;5095514;28;20686;-68
2022/10/26 10:17:09;;;;;;;7.57;3.88;;;17.50;99.90;;;;;;5094398;28;20183;-68
2022/10/26 10:19:36;;;;;;;7.80;4.07;;;17.70;99.90;;;;;;5095808;28;20218;-67
2022/10/26 10:22:23;;;;;;;8.82;4.57;;;17.50;99.90;;;;;;5089274;28;20310;-70
2022/10/26 10:24:58;;;;;;;7.93;3.88;;;17.50;99.90;;;;;;5093962;28;20225;-68
2022/10/26 10:27:25;;;;;;;6.78;3.95;;;17.60;99.90;;;;;;5095412;28;20683;-67
2022/10/26 10:30:18;;;;;;;6.20;4.05;;;17.70;99.90;;;;;;5074501;28;20259;-68
2022/10/26 10:32:44;;;;;;;6.03;3.55;;;17.50;99.90;;;;;;5092162;28;20205;-69
2022/10/26 10:35:27;;;;;;;4.75;3.20;;;17.70;99.90;;;;;;5093799;28;20181;-68
2022/10/26 10:37:53;;;;;;;6.03;3.78;;;17.70;99.90;;;;;;5096146;28;20206;-67
2022/10/26 10:40:21;;;;;;;7.55;3.90;;;18.00;99.90;;;;;;5095881;28;20594;-67
2022/10/26 10:42:49;;;;;;;6.55;3.85;;;18.00;99.90;;;;;;5096869;28;20260;-69
2022/10/26 10:45:26;;;;;;;6.68;4.20;;;17.90;99.90;;;;;;5076278;28;20561;-68
2022/10/26 10:48:02;;;;;;;5.65;3.50;;;17.60;99.90;;;;;;5074354;28;20237;-69
2022/10/26 10:50:29;;;;;;;5.60;3.47;;;17.80;99.90;;;;;;5088942;28;20178;-68
2022/10/26 10:53:23;;;;;;;5.93;3.50;;;18.00;99.90;;;;;;5099732;28;20175;-68
2022/10/26 10:56:10;;;;;;;7.20;3.90;;;18.10;99.90;;;;;;5094467;28;20259;-68
2022/10/26 10:58:43;;;;;;;7.53;3.90;;;18.00;99.90;;;;;;5090910;28;20234;-68
2022/10/26 11:01:16;;;;;;;5.53;3.42;;;18.10;99.90;;;;;;5098757;28;20927;-68
2022/10/26 11:04:09;;;;;;;4.55;3.22;;;18.00;99.90;;;;;;5090844;28;20688;-69
2022/10/26 11:06:38;;;;;;;6.45;3.70;;;18.00;99.90;;;;;;5092596;28;20210;-69
2022/10/26 11:09:12;;;;;;;6.18;3.45;;;17.90;99.90;;;;;;5098298;28;20225;-68
2022/10/26 11:11:43;;;;;;;6.93;4.07;;;17.80;99.90;;;;;;5096011;28;20218;-68
2022/10/26 11:14:24;;;;;;;5.10;3.78;;;17.90;99.90;;;;;;5088685;28;20175;-68
2022/10/26 11:16:55;;;;;;;8.50;3.70;;;17.90;99.90;;;;;;5092857;28;20198;-68
2022/10/26 11:19:30;;;;;;;5.78;3.55;;;17.80;99.90;;;;;;5094296;28;20297;-69
2022/10/26 11:21:56;;;;;;;5.15;3.58;;;17.80;99.90;;;;;;5095883;28;20218;-68
2022/10/26 11:24:32;;;;;;;8.48;3.40;;;17.50;99.90;;;;;;5093354;28;20281;-69
2022/10/26 11:27:18;;;;;;;6.50;4.22;;;17.70;99.90;;;;;;5096836;28;20198;-68
2022/10/26 11:29:52;;;;;;;9.45;4.32;;;17.70;99.90;;;;;;5093170;28;20202;-68
2022/10/26 11:32:44;;;;;;;14.27;5.25;;;17.70;99.90;;;;;;5092734;28;20690;-68
2022/10/26 11:35:20;;;;;;;7.78;4.47;;;17.80;99.90;;;;;;5074799;28;20174;-69
2022/10/26 11:38:02;;;;;;;4.60;3.53;;;18.10;99.90;;;;;;5093938;28;20225;-68
2022/10/26 11:41:09;;;;;;;5.40;3.83;;;18.10;99.90;;;;;;5072709;28;20206;-68
2022/10/26 11:43:47;;;;;;;3.35;3.05;;;18.00;99.90;;;;;;5098806;28;20288;-70
2022/10/26 11:46:31;;;;;;;6.32;3.58;;;17.90;99.90;;;;;;5098067;28;20560;-69
2022/10/26 11:49:51;;;;;;;4.45;3.85;;;18.00;99.90;;;;;;5093910;28;20264;-70
2022/10/26 11:52:39;;;;;;;4.07;3.22;;;18.10;99.90;;;;;;5032131;28;20219;-69
2022/10/26 11:55:09;;;;;;;6.22;3.33;;;18.20;99.90;;;;;;5094153;28;20207;-68
2022/10/26 11:57:36;;;;;;;7.43;2.92;;;18.00;99.90;;;;;;5088319;28;20263;-68
2022/10/26 12:00:06;;;;;;;6.50;3.03;;;17.90;99.90;;;;;;5083274;28;20213;-70
2022/10/26 12:02:40;;;;;;;4.85;2.90;;;17.80;99.90;;;;;;5098202;28;20202;-69
2022/10/26 12:05:15;;;;;;;5.40;3.05;;;18.00;99.90;;;;;;5074853;28;20189;-70
2022/10/26 12:07:46;;;;;;;4.28;2.53;;;18.10;99.90;;;;;;5092034;28;20226;-70
2022/10/26 12:10:24;;;;;;;4.43;2.70;;;17.90;99.90;;;;;;5098792;28;20224;-69
2022/10/26 12:13:02;;;;;;;5.40;2.47;;;17.90;99.90;;;;;;5077669;28;20758;-70
2022/10/26 12:15:34;;;;;;;5.60;2.90;;;18.10;99.90;;;;;;5091019;28;20205;-69
2022/10/26 12:18:11;;;;;;;3.08;2.20;;;18.00;99.90;;;;;;5097576;28;20302;-71
2022/10/26 12:21:01;;;;;;;5.25;2.70;;;18.00;99.90;;;;;;5096343;28;20210;-69
2022/10/26 12:23:33;;;;;;;4.55;2.72;;;18.00;99.90;;;;;;5094055;28;20582;-70
2022/10/26 12:26:28;;;;;;;3.90;2.53;;;18.00;99.90;;;;;;5093184;28;20231;-70
2022/10/26 12:29:02;;;;;;;6.30;2.95;;;18.10;99.90;;;;;;5097669;28;20230;-69
2022/10/26 12:31:31;;;;;;;2.78;2.53;;;18.10;99.90;;;;;;5095988;28;20209;-70
2022/10/26 12:33:57;;;;;;;4.93;2.45;;;18.10;99.90;;;;;;5075866;28;20202;-70
2022/10/26 12:36:48;;;;;;;12.60;2.70;;;18.00;99.90;;;;;;5098421;28;20213;-71
2022/10/26 12:39:38;;;;;;;5.07;2.80;;;18.10;99.90;;;;;;5079725;28;20201;-70
2022/10/26 12:42:03;;;;;;;7.60;2.75;;;18.00;99.90;;;;;;5071124;28;20293;-70
2022/10/26 12:44:35;;;;;;;6.65;2.80;;;18.00;99.90;;;;;;5105944;28;20259;-70
2022/10/26 12:47:01;;;;;;;5.07;2.40;;;18.10;99.90;;;;;;5076430;28;20170;-70
2022/10/26 12:49:58;;;;;;;5.75;2.50;;;18.00;99.90;;;;;;5093685;28;20217;-70
2022/10/26 12:52:43;;;;;;;4.78;2.50;;;17.90;99.90;;;;;;5096047;28;20205;-70
2022/10/26 12:55:28;;;;;;;6.05;2.83;;;18.00;99.90;;;;;;5098900;28;20351;-70
2022/10/26 12:58:16;;;;;;;5.85;2.78;;;18.00;99.90;;;;;;5074885;28;20212;-69
2022/10/26 13:00:59;;;;;;;3.35;2.20;;;18.10;99.90;;;;;;5066626;28;20213;-70
2022/10/26 13:03:37;;;;;;;4.47;2.40;;;18.00;99.90;;;;;;5095720;28;20266;-70
2022/10/26 13:06:38;;;;;;;8.55;2.10;;;18.00;99.90;;;;;;5093647;28;20213;-70